Time;durP1;ratioP1;P1;durP2;ratioP2;P2;SDS_P1;SDS_P2;PMS_P1;PMS_P2;Temp;Humidity;BMP_temperature;BMP_pressure;BME280_temperature;BME280_humidity;BME280_pressure;Samples;Min_cycle;Max_cycle;Signal;HPM_P1;HPM_P2
2022/05/20 03:04:33;;;;;;;41.55;23.88;;;15.10;99.90;;;;;;4889619;29;20744;-61
2022/05/20 03:06:59;;;;;;;45.65;24.63;;;15.30;99.90;;;;;;4889359;29;20036;-61
2022/05/20 03:09:25;;;;;;;44.00;23.98;;;15.20;99.90;;;;;;4885769;29;20025;-61
2022/05/20 03:11:51;;;;;;;38.40;21.95;;;15.20;99.90;;;;;;4889819;29;20523;-61
2022/05/20 03:14:20;;;;;;;44.67;23.50;;;15.30;99.90;;;;;;4891679;29;20028;-61
2022/05/20 03:16:46;;;;;;;46.88;24.77;;;15.20;99.90;;;;;;4890777;29;20028;-61
2022/05/20 03:19:12;;;;;;;46.20;25.65;;;15.10;99.90;;;;;;4890026;29;20380;-61
2022/05/20 03:21:39;;;;;;;45.92;24.60;;;15.40;99.90;;;;;;4886953;29;20076;-61
2022/05/20 03:24:06;;;;;;;47.28;25.70;;;15.30;99.90;;;;;;4889827;29;20036;-61
2022/05/20 03:26:32;;;;;;;46.55;25.88;;;15.10;99.90;;;;;;4890731;29;20396;-61
2022/05/20 03:28:59;;;;;;;48.78;26.27;;;15.20;99.90;;;;;;4889216;29;20029;-61
2022/05/20 03:31:26;;;;;;;50.78;25.17;;;15.10;99.90;;;;;;4890528;29;20028;-60
2022/05/20 03:33:52;;;;;;;50.28;26.83;;;14.90;99.90;;;;;;4884603;29;20044;-60
2022/05/20 03:36:18;;;;;;;44.33;25.63;;;15.10;99.90;;;;;;4889211;29;20734;-60
2022/05/20 03:38:44;;;;;;;52.67;26.60;;;15.40;99.90;;;;;;4889862;29;20120;-61
2022/05/20 03:41:10;;;;;;;48.38;25.45;;;15.20;99.90;;;;;;4889047;29;20052;-60
2022/05/20 03:43:36;;;;;;;51.33;26.35;;;15.00;99.90;;;;;;4891163;29;20024;-61
2022/05/20 03:46:02;;;;;;;50.85;26.40;;;14.80;99.90;;;;;;4895933;29;20039;-60
2022/05/20 03:48:28;;;;;;;47.35;24.20;;;14.70;99.90;;;;;;4891217;29;20370;-60
2022/05/20 03:50:54;;;;;;;49.55;25.90;;;14.70;99.90;;;;;;4890022;29;20047;-60
2022/05/20 03:53:20;;;;;;;52.50;25.85;;;14.60;99.90;;;;;;4889101;29;20124;-61
2022/05/20 03:55:45;;;;;;;53.95;25.90;;;14.60;99.90;;;;;;4890382;29;20404;-61
2022/05/20 03:58:11;;;;;;;47.45;25.85;;;14.60;99.90;;;;;;4888564;29;20184;-61
2022/05/20 04:03:23;;;;;;;53.22;26.20;;;14.70;99.90;;;;;;4887051;29;20524;-61
2022/05/20 04:05:49;;;;;;;49.88;26.50;;;14.60;99.90;;;;;;4889439;29;20032;-60
2022/05/20 04:08:15;;;;;;;48.90;24.70;;;14.60;99.90;;;;;;4889369;29;20099;-61
2022/05/20 04:10:41;;;;;;;49.60;25.65;;;14.50;99.90;;;;;;4889668;29;20071;-60
2022/05/20 04:13:07;;;;;;;47.45;25.40;;;14.50;99.90;;;;;;4889305;29;20064;-61
2022/05/20 04:15:33;;;;;;;47.60;24.40;;;14.40;99.90;;;;;;4892619;29;20041;-60
2022/05/20 04:17:58;;;;;;;48.45;26.15;;;14.40;99.90;;;;;;4892593;29;20052;-60
2022/05/20 04:20:24;;;;;;;50.35;27.08;;;14.40;99.90;;;;;;4897293;29;20743;-61
2022/05/20 04:22:50;;;;;;;55.80;26.77;;;14.50;99.90;;;;;;4893961;29;20100;-61
2022/05/20 04:25:15;;;;;;;47.28;25.13;;;14.50;99.90;;;;;;4895214;29;20555;-61
2022/05/20 04:27:41;;;;;;;51.17;24.00;;;14.60;99.90;;;;;;4895906;29;20234;-61
2022/05/20 04:30:09;;;;;;;52.95;27.65;;;14.70;99.90;;;;;;4896054;29;20037;-61
2022/05/20 04:32:35;;;;;;;51.03;27.40;;;14.70;99.90;;;;;;4891415;29;20044;-60
2022/05/20 04:35:00;;;;;;;50.75;26.20;;;14.70;99.90;;;;;;4893682;29;20043;-60
2022/05/20 04:37:27;;;;;;;56.30;28.42;;;14.70;99.90;;;;;;4896049;29;20062;-60
2022/05/20 04:39:53;;;;;;;55.38;26.42;;;14.70;99.90;;;;;;4889146;29;20044;-61
2022/05/20 04:47:48;;;;;;;49.90;27.48;;;14.80;99.90;;;;;;4893468;29;20035;-61
2022/05/20 04:50:14;;;;;;;57.20;28.35;;;14.90;99.90;;;;;;4892305;29;20025;-60
2022/05/20 04:52:39;;;;;;;49.50;26.65;;;14.90;99.90;;;;;;4895344;29;20064;-61
2022/05/20 04:55:07;;;;;;;48.75;26.92;;;15.00;99.90;;;;;;4892684;29;20067;-61
2022/05/20 04:57:36;;;;;;;48.03;25.88;;;15.20;99.90;;;;;;4892981;29;20091;-60
2022/05/20 05:00:10;;;;;;;49.60;26.88;;;15.20;99.90;;;;;;4895759;29;20040;-61
2022/05/20 05:02:37;;;;;;;57.08;27.95;;;15.40;99.90;;;;;;4890631;29;20053;-60
2022/05/20 05:05:05;;;;;;;49.17;26.90;;;15.50;99.90;;;;;;4893565;29;20111;-61
2022/05/20 05:07:31;;;;;;;54.78;29.35;;;15.60;99.90;;;;;;4895437;29;20132;-60
2022/05/20 05:09:58;;;;;;;52.58;28.90;;;15.60;99.90;;;;;;4899906;29;20091;-61
2022/05/20 05:12:24;;;;;;;43.80;24.88;;;15.70;99.90;;;;;;4895319;29;20052;-61
2022/05/20 05:14:52;;;;;;;54.13;27.08;;;15.70;99.90;;;;;;4895289;29;20112;-60
2022/05/20 05:18:09;;;;;;;48.55;26.00;;;15.70;99.90;;;;;;4901722;29;20036;-61
2022/05/20 05:20:10;;;;;;;48.73;26.90;;;15.80;99.90;;;;;;4894112;29;20096;-60
2022/05/20 05:22:36;;;;;;;54.60;27.42;;;15.90;99.90;;;;;;4898384;29;20307;-60
2022/05/20 05:25:01;;;;;;;47.13;26.52;;;15.90;99.90;;;;;;4889616;29;20524;-60
2022/05/20 05:27:27;;;;;;;42.78;24.45;;;16.00;99.90;;;;;;4891540;29;20495;-60
2022/05/20 05:29:53;;;;;;;45.28;24.48;;;15.90;99.90;;;;;;4893453;29;20021;-60
2022/05/20 05:32:18;;;;;;;45.28;23.40;;;15.90;99.90;;;;;;4893206;29;20037;-60
2022/05/20 05:34:44;;;;;;;44.10;22.95;;;16.00;99.90;;;;;;4891813;29;20044;-60
2022/05/20 05:37:10;;;;;;;39.92;22.38;;;16.20;99.90;;;;;;4891856;29;20829;-61
2022/05/20 05:39:37;;;;;;;39.58;19.95;;;16.20;99.90;;;;;;4891535;29;20028;-60
2022/05/20 05:42:02;;;;;;;34.53;18.52;;;16.10;99.90;;;;;;4891057;29;20025;-59
2022/05/20 05:44:28;;;;;;;32.38;18.42;;;16.20;99.90;;;;;;4891570;29;20043;-60
2022/05/20 05:46:54;;;;;;;37.45;20.35;;;16.20;99.90;;;;;;4891398;29;20036;-60
2022/05/20 05:49:20;;;;;;;44.17;25.90;;;16.20;99.90;;;;;;4891558;29;20550;-60
2022/05/20 05:51:45;;;;;;;50.65;27.60;;;16.30;99.90;;;;;;4891911;29;20414;-59
2022/05/20 05:54:11;;;;;;;53.20;28.95;;;16.30;99.90;;;;;;4891979;29;20044;-59
2022/05/20 05:56:37;;;;;;;52.63;26.83;;;16.30;99.90;;;;;;4891456;29;20040;-59
2022/05/20 05:59:03;;;;;;;53.33;27.95;;;16.50;99.90;;;;;;4891224;29;20041;-59
2022/05/20 06:01:29;;;;;;;55.85;29.45;;;16.50;99.90;;;;;;4886513;29;20039;-59
2022/05/20 06:03:55;;;;;;;48.00;25.80;;;16.30;99.90;;;;;;4891062;29;20052;-60
2022/05/20 06:06:20;;;;;;;47.90;25.60;;;16.60;99.90;;;;;;4890618;29;20076;-60
2022/05/20 06:08:46;;;;;;;44.05;25.02;;;16.60;99.90;;;;;;4891933;29;20032;-60
2022/05/20 06:11:13;;;;;;;47.03;26.52;;;17.20;99.90;;;;;;4892001;29;20033;-60
2022/05/20 06:13:39;;;;;;;55.78;27.38;;;17.00;99.90;;;;;;4891096;29;20037;-60
2022/05/20 06:16:05;;;;;;;54.70;29.15;;;16.40;99.90;;;;;;4873400;29;20040;-60
2022/05/20 06:18:31;;;;;;;47.92;27.63;;;16.20;99.90;;;;;;4890364;29;20125;-60
2022/05/20 06:20:57;;;;;;;54.65;30.05;;;16.50;99.90;;;;;;4890884;29;20059;-59
2022/05/20 06:23:23;;;;;;;46.45;23.92;;;16.10;99.90;;;;;;4890085;29;20043;-60
2022/05/20 06:25:49;;;;;;;50.40;29.60;;;16.40;99.90;;;;;;4890638;29;20028;-60
2022/05/20 06:28:16;;;;;;;54.28;29.88;;;16.60;99.90;;;;;;4889602;29;20036;-59
2022/05/20 06:30:42;;;;;;;46.88;27.50;;;16.70;99.90;;;;;;4890607;29;20037;-60
2022/05/20 06:33:09;;;;;;;47.55;28.30;;;17.10;99.90;;;;;;4888449;29;20035;-59
2022/05/20 06:41:04;;;;;;;52.63;26.63;;;17.10;99.90;;;;;;4891611;29;20047;-60
2022/05/20 06:43:30;;;;;;;49.97;26.90;;;17.30;99.90;;;;;;4892790;29;20067;-60
2022/05/20 06:45:58;;;;;;;47.58;26.25;;;17.60;99.90;;;;;;4895703;29;20080;-60
2022/05/20 06:48:48;;;;;;;41.60;25.25;;;17.80;99.90;;;;;;4889714;29;20025;-59
2022/05/20 06:51:17;;;;;;;43.00;24.60;;;17.60;99.90;;;;;;4891240;29;20595;-59
2022/05/20 06:53:43;;;;;;;48.35;26.50;;;17.40;99.90;;;;;;4893903;29;20108;-59
2022/05/20 06:56:10;;;;;;;45.70;25.05;;;17.60;99.90;;;;;;4887661;29;20488;-59
2022/05/20 06:58:36;;;;;;;42.72;27.77;;;17.60;99.90;;;;;;4889610;29;20047;-60
2022/05/20 07:01:03;;;;;;;39.50;24.10;;;17.40;99.90;;;;;;4890255;29;20419;-60
2022/05/20 07:03:28;;;;;;;45.70;27.20;;;17.50;99.90;;;;;;4888653;29;20547;-60
2022/05/20 07:05:54;;;;;;;46.13;27.58;;;17.50;99.90;;;;;;4890404;29;20036;-59
2022/05/20 07:08:20;;;;;;;41.47;24.08;;;17.40;99.90;;;;;;4885286;29;20140;-59
2022/05/20 07:10:45;;;;;;;40.33;24.63;;;17.60;99.90;;;;;;4889166;29;20103;-59
2022/05/20 07:13:12;;;;;;;48.05;23.20;;;17.70;99.90;;;;;;4889191;29;20065;-60
2022/05/20 07:15:37;;;;;;;40.22;21.35;;;18.00;99.90;;;;;;4889507;29;20041;-60
2022/05/20 07:18:03;;;;;;;37.53;21.30;;;18.00;99.90;;;;;;4889230;29;20774;-60
2022/05/20 07:20:29;;;;;;;38.83;22.52;;;17.90;99.90;;;;;;4888758;29;20160;-60
2022/05/20 07:22:54;;;;;;;42.67;21.17;;;18.00;99.90;;;;;;4888877;29;20037;-59
2022/05/20 07:25:20;;;;;;;51.25;23.83;;;18.30;99.90;;;;;;4885697;29;20040;-59
2022/05/20 07:27:46;;;;;;;40.10;21.00;;;18.70;99.90;;;;;;4888068;29;20192;-61
2022/05/20 07:30:14;;;;;;;31.70;18.42;;;18.40;99.90;;;;;;4887022;29;20246;-60
2022/05/20 07:32:39;;;;;;;34.67;21.25;;;18.80;99.90;;;;;;4885806;29;20456;-60
2022/05/20 07:35:05;;;;;;;35.28;19.73;;;18.50;99.90;;;;;;4888895;29;20036;-60
2022/05/20 07:37:32;;;;;;;34.53;19.80;;;18.60;99.90;;;;;;4883665;29;20437;-60
2022/05/20 07:39:58;;;;;;;34.97;19.38;;;18.80;99.90;;;;;;4883097;29;20035;-60
2022/05/20 07:42:24;;;;;;;33.22;20.65;;;19.10;99.90;;;;;;4890430;29;20551;-60
2022/05/20 07:44:50;;;;;;;35.67;22.27;;;19.50;99.90;;;;;;4895215;29;20861;-60
2022/05/20 07:47:15;;;;;;;37.13;21.92;;;19.50;99.90;;;;;;4881831;29;20029;-60
2022/05/20 07:49:41;;;;;;;36.55;20.80;;;19.50;99.90;;;;;;4885519;29;20032;-60
2022/05/20 07:52:09;;;;;;;33.22;22.40;;;19.80;99.90;;;;;;4885626;29;20039;-60
2022/05/20 07:54:40;;;;;;;37.05;22.33;;;19.40;99.90;;;;;;4872984;29;20036;-60
2022/05/20 07:57:13;;;;;;;35.58;21.48;;;19.00;99.90;;;;;;4890558;29;20044;-60
2022/05/20 07:59:51;;;;;;;39.63;19.20;;;19.30;99.90;;;;;;4883975;29;20035;-60
2022/05/20 08:02:27;;;;;;;33.08;19.90;;;19.70;99.90;;;;;;4887078;29;20072;-60
2022/05/20 08:05:00;;;;;;;37.67;22.23;;;20.10;99.90;;;;;;4894376;29;20036;-59
2022/05/20 08:07:48;;;;;;;36.33;21.45;;;19.40;99.90;;;;;;4884939;29;20638;-60
2022/05/20 08:10:21;;;;;;;33.28;18.98;;;19.10;99.90;;;;;;4886937;29;20841;-60
2022/05/20 08:12:47;;;;;;;33.55;21.27;;;20.00;99.90;;;;;;4888878;29;20481;-59
2022/05/20 08:15:14;;;;;;;34.45;19.60;;;19.70;99.90;;;;;;4877779;29;20068;-60
2022/05/20 08:17:41;;;;;;;29.55;17.60;;;20.20;99.90;;;;;;4886510;29;20044;-59
2022/05/20 08:20:10;;;;;;;28.60;16.92;;;21.30;99.90;;;;;;4885154;29;20046;-60
2022/05/20 08:22:37;;;;;;;29.43;17.30;;;21.50;99.90;;;;;;4884579;29;20052;-60
2022/05/20 08:25:03;;;;;;;27.63;17.80;;;21.10;99.90;;;;;;4882827;29;20044;-60
2022/05/20 08:27:31;;;;;;;32.55;19.38;;;20.90;99.90;;;;;;4895693;29;20032;-61
2022/05/20 08:29:57;;;;;;;28.25;16.00;;;21.00;99.90;;;;;;4883768;29;20029;-60
2022/05/20 08:32:23;;;;;;;28.23;17.05;;;21.40;99.90;;;;;;4863718;29;20028;-60
2022/05/20 08:34:50;;;;;;;30.75;18.42;;;21.60;99.90;;;;;;4878254;29;20101;-60
2022/05/20 08:37:17;;;;;;;33.55;18.88;;;22.90;99.90;;;;;;4884383;29;20041;-60
2022/05/20 08:39:43;;;;;;;32.30;19.33;;;22.60;99.90;;;;;;4880030;29;20040;-60
2022/05/20 08:42:17;;;;;;;30.90;19.55;;;21.50;99.90;;;;;;4884804;29;20036;-60
2022/05/20 08:44:43;;;;;;;29.75;18.05;;;22.30;99.90;;;;;;4883939;29;20039;-60
2022/05/20 08:47:23;;;;;;;30.40;19.90;;;22.60;99.90;;;;;;4887386;29;20024;-60
2022/05/20 08:49:52;;;;;;;32.30;18.83;;;23.00;99.90;;;;;;4882195;29;20544;-60
2022/05/20 08:52:18;;;;;;;34.10;19.13;;;22.60;99.90;;;;;;4881829;29;20044;-60
2022/05/20 08:54:43;;;;;;;29.33;19.05;;;22.60;99.90;;;;;;4885443;29;20037;-60
2022/05/20 08:57:39;;;;;;;34.35;19.38;;;22.20;99.90;;;;;;4884523;29;20373;-61
2022/05/20 09:00:10;;;;;;;37.85;19.90;;;23.50;99.90;;;;;;4871471;29;20602;-60
2022/05/20 09:02:37;;;;;;;30.38;19.15;;;22.10;99.90;;;;;;4888431;29;20067;-61
2022/05/20 09:05:18;;;;;;;27.90;16.27;;;21.90;99.90;;;;;;4889135;29;20496;-60
2022/05/20 09:08:13;;;;;;;30.27;18.08;;;22.40;99.90;;;;;;4886203;29;20028;-61
2022/05/20 09:10:46;;;;;;;32.42;19.75;;;22.50;99.90;;;;;;4880585;29;20622;-63
2022/05/20 09:13:12;;;;;;;33.78;18.83;;;22.10;99.90;;;;;;4892087;29;20036;-60
2022/05/20 09:15:44;;;;;;;34.28;19.98;;;22.20;99.90;;;;;;4885896;29;20492;-61
2022/05/20 09:18:18;;;;;;;32.38;19.60;;;21.90;99.90;;;;;;4887507;29;20037;-60
2022/05/20 09:20:52;;;;;;;37.10;22.05;;;21.40;99.90;;;;;;4890482;29;20127;-60
2022/05/20 09:23:22;;;;;;;32.00;20.42;;;20.60;99.90;;;;;;4869422;29;20032;-61
2022/05/20 09:26:00;;;;;;;33.90;20.38;;;20.90;99.90;;;;;;4896722;29;20025;-61
2022/05/20 09:28:34;;;;;;;33.13;20.35;;;21.10;99.90;;;;;;4891023;29;20617;-60
2022/05/20 09:31:26;;;;;;;32.38;19.92;;;21.70;99.90;;;;;;4889554;29;20110;-61
2022/05/20 09:34:19;;;;;;;32.53;19.40;;;21.70;99.90;;;;;;4889090;29;20045;-60
2022/05/20 09:36:58;;;;;;;30.52;18.10;;;22.10;99.90;;;;;;4891050;29;20389;-61
2022/05/20 09:39:27;;;;;;;32.00;20.23;;;23.10;99.90;;;;;;4889596;29;20059;-61
2022/05/20 09:41:55;;;;;;;35.63;21.90;;;22.60;99.90;;;;;;4892325;29;20135;-61
2022/05/20 09:44:32;;;;;;;32.58;21.88;;;22.00;99.90;;;;;;4889368;29;20036;-60
2022/05/20 09:47:31;;;;;;;28.40;17.38;;;22.20;99.90;;;;;;4888628;29;20484;-60
2022/05/20 09:49:58;;;;;;;30.35;17.10;;;23.90;99.90;;;;;;4891923;29;20107;-61
2022/05/20 09:52:39;;;;;;;30.50;20.25;;;23.70;99.90;;;;;;4889587;29;20067;-60
2022/05/20 09:55:12;;;;;;;30.33;19.25;;;23.40;99.90;;;;;;4886144;29;20081;-61
2022/05/20 09:57:47;;;;;;;25.73;14.32;;;24.00;99.90;;;;;;4889818;29;20089;-60
2022/05/20 10:00:17;;;;;;;31.85;19.75;;;24.50;99.90;;;;;;4887933;29;20480;-60
2022/05/20 10:02:58;;;;;;;;;;;24.20;99.90;;;;;;4884481;29;20063;-61
2022/05/20 10:05:32;;;;;;;30.48;17.98;;;24.00;99.90;;;;;;4888226;29;19954;-61
2022/05/20 10:08:22;;;;;;;30.88;17.40;;;24.30;99.90;;;;;;4887161;29;20481;-60
2022/05/20 10:11:10;;;;;;;29.10;19.42;;;24.90;99.90;;;;;;4893131;29;20404;-60
2022/05/20 10:13:36;;;;;;;33.88;19.60;;;23.30;99.90;;;;;;4887750;29;20036;-60
2022/05/20 10:16:05;;;;;;;31.48;17.88;;;23.50;99.90;;;;;;4891071;29;20040;-61
2022/05/20 10:18:46;;;;;;;30.30;19.33;;;24.40;99.90;;;;;;4893314;29;20103;-61
2022/05/20 10:21:21;;;;;;;32.55;19.33;;;24.50;99.90;;;;;;4886858;29;20044;-61
2022/05/20 10:23:59;;;;;;;29.92;17.63;;;25.20;99.90;;;;;;4890587;29;20028;-61
2022/05/20 10:26:31;;;;;;;28.23;18.63;;;25.90;99.90;;;;;;4869643;29;20785;-61
2022/05/20 10:34:41;;;;;;;23.55;15.30;;;28.30;99.90;;;;;;4890110;29;20559;-61
2022/05/20 10:37:14;;;;;;;30.48;18.40;;;27.60;99.90;;;;;;4887682;29;20084;-61
2022/05/20 10:40:28;;;;;;;31.92;21.75;;;26.40;99.90;;;;;;4884745;29;20411;-61
2022/05/20 10:43:05;;;;;;;30.17;19.40;;;24.10;99.90;;;;;;4842276;29;20487;-60
2022/05/20 10:49:23;;;;;;;28.77;17.85;;;25.50;99.90;;;;;;4887094;29;20067;-61
2022/05/20 10:51:49;;;;;;;26.17;16.95;;;27.60;99.90;;;;;;4814637;29;20046;-61
2022/05/20 10:54:43;;;;;;;25.50;16.48;;;28.30;99.90;;;;;;4812430;29;20042;-61
2022/05/20 10:57:27;;;;;;;29.92;19.83;;;28.10;99.90;;;;;;4810974;29;20530;-60
2022/05/20 11:00:08;;;;;;;31.27;19.58;;;26.00;99.90;;;;;;4813951;29;20038;-61
2022/05/20 11:02:55;;;;;;;27.85;17.73;;;25.30;99.90;;;;;;4810084;29;20057;-61
2022/05/20 11:05:57;;;;;;;25.27;15.18;;;27.50;99.90;;;;;;4809691;29;20062;-61
2022/05/20 11:09:01;;;;;;;26.88;14.43;;;30.60;99.10;;;;;;4808833;29;20113;-61
2022/05/20 11:11:50;;;;;;;29.10;17.30;;;29.40;99.90;;;;;;4810959;29;20026;-61
2022/05/20 11:14:34;;;;;;;;;;;29.70;97.90;;;;;;4811794;29;20080;-61
2022/05/20 11:17:37;;;;;;;26.83;15.00;;;28.20;99.90;;;;;;4810442;29;19912;-61
2022/05/20 11:20:13;;;;;;;31.95;19.90;;;28.60;99.70;;;;;;4813989;29;20082;-60
2022/05/20 11:22:58;;;;;;;29.02;19.55;;;27.50;99.90;;;;;;4854342;29;20471;-62
2022/05/20 11:25:43;;;;;;;28.20;18.33;;;28.00;99.90;;;;;;4885549;29;20033;-61
2022/05/20 11:28:31;;;;;;;27.90;16.80;;;28.00;99.90;;;;;;4886764;29;20391;-61
2022/05/20 11:31:20;;;;;;;23.48;14.40;;;27.20;99.90;;;;;;4889959;29;20769;-61
2022/05/20 11:34:03;;;;;;;29.65;20.35;;;27.40;99.90;;;;;;4871590;29;20127;-61
2022/05/20 11:36:32;;;;;;;27.63;18.20;;;26.70;99.90;;;;;;4888325;29;20087;-61
2022/05/20 11:39:20;;;;;;;27.83;18.52;;;27.40;99.90;;;;;;4885860;29;20386;-61
2022/05/20 11:42:18;;;;;;;30.13;19.88;;;27.30;99.90;;;;;;4885705;29;20548;-61
2022/05/20 11:45:11;;;;;;;27.40;17.00;;;26.80;99.90;;;;;;4887515;29;20138;-61
2022/05/20 11:48:09;;;;;;;26.75;19.67;;;27.20;99.90;;;;;;4884359;29;20420;-61
2022/05/20 11:51:04;;;;;;;29.25;18.25;;;26.80;99.90;;;;;;4884066;29;20084;-61
2022/05/20 11:53:56;;;;;;;31.13;23.30;;;27.40;99.90;;;;;;4884304;29;20120;-62
2022/05/20 11:56:35;;;;;;;35.92;21.70;;;26.40;99.90;;;;;;4879466;29;20472;-61
2022/05/20 11:59:29;;;;;;;28.10;18.10;;;26.60;99.90;;;;;;4884510;29;20374;-62
2022/05/20 12:01:58;;;;;;;38.25;23.10;;;29.60;99.90;;;;;;4886044;29;20040;-61
2022/05/20 12:04:27;;;;;;;35.55;22.80;;;28.80;99.90;;;;;;4885724;29;20079;-61
2022/05/20 12:07:04;;;;;;;36.05;24.60;;;27.90;99.90;;;;;;4885158;29;20051;-61
2022/05/20 12:09:33;;;;;;;32.15;21.67;;;27.60;99.90;;;;;;4884538;29;20144;-61
2022/05/20 12:12:16;;;;;;;31.77;22.23;;;28.60;99.90;;;;;;4882570;29;20481;-61
2022/05/20 12:14:56;;;;;;;30.52;20.10;;;28.80;99.90;;;;;;4886693;29;20352;-61
2022/05/20 12:17:32;;;;;;;30.70;18.55;;;29.10;99.90;;;;;;4883597;29;20556;-61
2022/05/20 12:26:08;;;;;;;32.28;21.00;;;30.90;99.20;;;;;;4872024;29;20036;-61
2022/05/20 12:28:39;;;;;;;37.38;21.25;;;31.80;96.80;;;;;;4882194;29;20029;-61
2022/05/20 12:31:20;;;;;;;31.42;22.10;;;30.00;99.20;;;;;;4890122;29;20028;-61
2022/05/20 12:34:05;;;;;;;35.05;21.75;;;30.80;98.40;;;;;;4886420;29;20075;-61
2022/05/20 12:36:35;;;;;;;26.95;17.77;;;29.50;99.90;;;;;;4881331;29;20043;-62
2022/05/20 12:39:07;;;;;;;29.33;19.65;;;29.90;99.90;;;;;;4889262;29;20059;-62
2022/05/20 12:41:47;;;;;;;32.45;21.10;;;31.50;98.80;;;;;;4889209;29;20045;-61
2022/05/20 12:44:16;;;;;;;34.85;21.90;;;28.90;99.90;;;;;;4887832;29;20604;-61
2022/05/20 12:46:53;;;;;;;32.30;19.67;;;28.30;99.90;;;;;;4889481;29;20057;-61
2022/05/20 12:49:21;;;;;;;28.27;17.27;;;27.30;99.90;;;;;;4886018;29;20070;-62
2022/05/20 12:51:49;;;;;;;31.05;19.15;;;27.70;99.90;;;;;;4888205;29;20100;-62
2022/05/20 12:54:25;;;;;;;35.47;22.65;;;27.40;99.90;;;;;;4884790;29;20037;-63
2022/05/20 12:57:03;;;;;;;33.30;21.85;;;26.50;99.90;;;;;;4889041;29;20511;-62
2022/05/20 12:59:29;;;;;;;33.55;21.95;;;25.80;99.90;;;;;;4887475;29;20551;-62
2022/05/20 13:01:58;;;;;;;35.55;22.15;;;25.30;99.90;;;;;;4888638;29;20043;-62
2022/05/20 13:04:28;;;;;;;38.20;21.67;;;25.00;99.90;;;;;;4891372;29;20044;-62
2022/05/20 13:06:56;;;;;;;36.67;23.13;;;25.10;99.90;;;;;;4876999;29;20061;-62
2022/05/20 13:09:28;;;;;;;40.28;24.55;;;25.30;99.90;;;;;;4887728;29;20123;-62
2022/05/20 13:12:02;;;;;;;39.88;24.42;;;24.90;99.90;;;;;;4885336;29;20499;-62
2022/05/20 13:14:30;;;;;;;39.05;25.08;;;24.40;99.90;;;;;;4887715;29;20028;-62
2022/05/20 13:16:58;;;;;;;40.88;25.00;;;24.30;99.90;;;;;;4887391;29;20033;-62
2022/05/20 13:19:36;;;;;;;34.83;21.05;;;24.20;99.90;;;;;;4884807;29;20555;-62
2022/05/20 13:22:05;;;;;;;38.00;21.92;;;24.50;99.90;;;;;;4888681;29;20040;-62
2022/05/20 13:24:38;;;;;;;37.10;23.25;;;24.50;99.90;;;;;;4890991;29;20029;-62
2022/05/20 13:27:06;;;;;;;36.40;22.30;;;24.00;99.90;;;;;;4889736;29;20039;-62
2022/05/20 13:29:31;;;;;;;41.88;26.10;;;23.90;99.90;;;;;;4891056;29;20039;-62
2022/05/20 13:32:20;;;;;;;49.90;29.67;;;23.40;99.90;;;;;;4890032;29;20036;-62
2022/05/20 13:34:51;;;;;;;50.50;31.50;;;22.90;99.90;;;;;;4888537;29;20136;-63
2022/05/20 13:37:24;;;;;;;56.97;33.38;;;22.20;99.90;;;;;;4890247;29;20020;-62
2022/05/20 13:39:53;;;;;;;61.38;32.25;;;21.60;99.90;;;;;;4889899;29;20028;-62
2022/05/20 13:42:19;;;;;;;67.30;35.25;;;21.70;99.90;;;;;;4886342;29;20017;-62
2022/05/20 13:44:45;;;;;;;75.78;39.80;;;21.70;99.90;;;;;;4885367;29;20385;-62
2022/05/20 13:50:00;;;;;;;81.72;41.20;;;21.00;99.90;;;;;;4888790;29;20099;-62
2022/05/20 13:52:26;;;;;;;90.57;41.28;;;20.80;99.90;;;;;;4891316;29;20043;-62
2022/05/20 13:54:59;;;;;;;99.82;46.63;;;20.70;99.90;;;;;;4890316;29;20052;-62
2022/05/20 13:57:35;;;;;;;92.90;41.80;;;20.30;99.90;;;;;;4887520;29;20541;-62
2022/05/20 14:00:29;;;;;;;94.60;41.42;;;20.50;99.90;;;;;;4883764;29;20037;-62
2022/05/20 14:03:28;;;;;;;99.30;45.42;;;20.50;99.90;;;;;;4888453;29;20049;-62
2022/05/20 14:06:19;;;;;;;90.20;40.20;;;20.30;99.90;;;;;;4881445;29;20056;-62
2022/05/20 14:08:53;;;;;;;68.38;34.90;;;20.60;99.90;;;;;;4888987;29;20273;-62
2022/05/20 14:11:31;;;;;;;61.53;32.83;;;20.60;99.90;;;;;;4890840;29;20029;-62
2022/05/20 14:14:03;;;;;;;40.40;22.38;;;20.60;99.90;;;;;;4888229;29;20032;-62
2022/05/20 14:16:35;;;;;;;20.60;12.15;;;20.70;99.90;;;;;;4886133;29;20044;-62
2022/05/20 14:19:31;;;;;;;20.98;11.73;;;20.60;99.90;;;;;;4886820;29;20060;-62
2022/05/20 14:22:06;;;;;;;17.02;9.77;;;20.80;99.90;;;;;;4877219;29;20900;-62
2022/05/20 14:24:37;;;;;;;18.80;11.63;;;21.00;99.90;;;;;;4885034;29;20560;-62
2022/05/20 14:27:03;;;;;;;13.45;8.88;;;21.70;99.90;;;;;;4886959;29;20033;-62
2022/05/20 14:29:32;;;;;;;15.52;7.75;;;22.60;99.90;;;;;;4883366;29;20675;-62
2022/05/20 14:32:04;;;;;;;13.02;7.05;;;22.80;99.90;;;;;;4881411;29;20022;-63
2022/05/20 14:34:40;;;;;;;12.57;6.25;;;22.90;99.90;;;;;;4886901;29;20038;-63
2022/05/20 14:37:11;;;;;;;12.43;6.43;;;23.10;99.90;;;;;;4885701;29;20052;-63
2022/05/20 14:39:41;;;;;;;10.82;6.00;;;23.60;99.90;;;;;;4887696;29;20080;-63
2022/05/20 14:42:27;;;;;;;13.52;6.97;;;24.90;99.90;;;;;;4883338;29;20752;-63
2022/05/20 14:45:02;;;;;;;10.45;6.20;;;25.80;99.90;;;;;;4885874;29;20440;-63
2022/05/20 14:47:32;;;;;;;11.85;6.43;;;25.90;99.90;;;;;;4882713;29;20029;-63
2022/05/20 14:50:05;;;;;;;10.95;6.60;;;25.20;99.90;;;;;;4885888;29;20560;-63
2022/05/20 14:52:54;;;;;;;12.85;6.70;;;24.70;99.90;;;;;;4881394;29;20056;-63
2022/05/20 14:55:45;;;;;;;11.82;6.75;;;23.80;99.90;;;;;;4882502;29;20410;-63
2022/05/20 14:58:18;;;;;;;13.40;7.45;;;23.40;99.90;;;;;;4883926;29;20044;-63
2022/05/20 15:00:55;;;;;;;13.32;8.07;;;22.90;99.90;;;;;;4884784;29;20521;-63
2022/05/20 15:03:23;;;;;;;13.98;9.45;;;22.50;99.90;;;;;;4880569;29;20076;-63
2022/05/20 15:05:50;;;;;;;13.20;8.80;;;;;;;;;;4883581;29;20582;-63
2022/05/20 15:08:17;;;;;;;15.63;9.30;;;21.90;99.90;;;;;;4888058;29;20442;-64
2022/05/20 15:10:57;;;;;;;21.90;9.57;;;21.70;99.90;;;;;;4884500;29;20383;-63
2022/05/20 15:13:24;;;;;;;13.80;9.15;;;21.30;99.90;;;;;;4883778;29;20036;-63
2022/05/20 15:15:50;;;;;;;14.57;9.00;;;21.10;99.90;;;;;;4886135;29;20107;-63
2022/05/20 15:18:15;;;;;;;16.35;9.02;;;21.00;99.90;;;;;;4888296;29;20472;-63
2022/05/20 15:20:48;;;;;;;15.63;8.43;;;20.90;99.90;;;;;;4882506;29;20060;-64
2022/05/20 15:23:34;;;;;;;14.32;7.47;;;20.70;99.90;;;;;;4884764;29;20044;-63
2022/05/20 15:25:59;;;;;;;13.07;6.78;;;20.70;99.90;;;;;;4885470;29;20056;-63
2022/05/20 15:36:42;;;;;;;10.85;4.25;;;20.10;99.90;;;;;;4882936;29;20048;-62
2022/05/20 15:39:30;;;;;;;10.23;4.30;;;20.00;99.90;;;;;;4891119;29;20423;-62
2022/05/20 15:41:56;;;;;;;8.73;4.90;;;19.90;99.90;;;;;;4889993;29;20063;-62
2022/05/20 15:44:22;;;;;;;10.65;5.72;;;19.90;99.90;;;;;;4889761;29;20112;-62
2022/05/20 15:46:48;;;;;;;10.57;5.30;;;19.90;99.90;;;;;;4886279;29;20036;-63
2022/05/20 15:49:14;;;;;;;11.82;5.97;;;20.00;99.90;;;;;;4889590;29;20043;-63
2022/05/20 15:51:40;;;;;;;10.77;5.82;;;20.00;99.90;;;;;;4887894;29;20047;-62
2022/05/20 15:54:08;;;;;;;11.38;5.57;;;20.10;99.90;;;;;;4887227;29;20044;-64
2022/05/20 15:56:35;;;;;;;11.10;5.38;;;20.10;99.90;;;;;;4885766;29;20036;-63
2022/05/20 15:59:00;;;;;;;9.15;5.10;;;20.20;99.90;;;;;;4886219;29;20123;-63
2022/05/20 16:01:27;;;;;;;9.35;5.00;;;20.20;99.90;;;;;;4883949;29;20159;-63
2022/05/20 16:03:53;;;;;;;13.00;5.28;;;20.20;99.90;;;;;;4885999;29;20087;-63
2022/05/20 16:06:23;;;;;;;10.07;5.20;;;20.30;99.90;;;;;;4889198;29;20475;-63
2022/05/20 16:08:51;;;;;;;10.32;5.22;;;20.30;99.90;;;;;;4887014;29;20037;-64
2022/05/20 16:11:21;;;;;;;8.70;4.82;;;20.30;99.90;;;;;;4893384;29;20036;-63
2022/05/20 16:13:46;;;;;;;9.13;5.05;;;20.30;99.90;;;;;;4892317;29;20527;-64
2022/05/20 16:16:12;;;;;;;12.85;5.57;;;20.40;99.90;;;;;;4895315;29;20040;-64
2022/05/20 16:18:38;;;;;;;10.00;4.63;;;20.60;99.90;;;;;;4895148;29;20500;-63
2022/05/20 16:21:04;;;;;;;13.00;5.07;;;20.60;99.90;;;;;;4895050;29;20055;-63
2022/05/20 16:23:38;;;;;;;9.18;4.70;;;20.40;99.90;;;;;;4896054;29;20063;-63
2022/05/20 16:26:03;;;;;;;9.23;4.72;;;20.20;99.90;;;;;;4895356;29;20028;-63
2022/05/20 16:28:29;;;;;;;7.80;3.47;;;20.00;99.90;;;;;;4894906;29;20040;-63
2022/05/20 16:30:56;;;;;;;13.90;4.28;;;19.50;99.90;;;;;;4889467;29;20021;-63
2022/05/20 16:33:22;;;;;;;13.00;3.97;;;19.40;99.90;;;;;;4889632;29;20032;-64
2022/05/20 16:35:49;;;;;;;12.38;4.20;;;19.40;99.90;;;;;;4895370;29;20036;-64
2022/05/20 16:38:17;;;;;;;8.05;3.40;;;19.30;99.90;;;;;;4891102;29;20467;-63